createdAt,value
2017-12-11T00:00:43.893Z,81.90
2017-12-11T00:03:11.377Z,82.60
2017-12-11T00:05:38.843Z,82.60
2017-12-11T00:08:06.323Z,82.60
2017-12-11T00:10:33.794Z,82.60
2017-12-11T00:13:01.284Z,82.60
2017-12-11T00:15:28.752Z,82.80
2017-12-11T00:17:57.006Z,82.80
2017-12-11T00:20:24.707Z,82.70
2017-12-11T00:22:52.231Z,82.80
2017-12-11T00:25:19.749Z,83.00
2017-12-11T00:27:47.435Z,83.60
2017-12-11T00:30:14.906Z,82.90
2017-12-11T00:32:42.382Z,83.00
2017-12-11T00:35:09.869Z,83.00
2017-12-11T00:37:38.207Z,83.60
2017-12-11T00:40:05.660Z,83.00
2017-12-11T00:42:33.162Z,83.10
2017-12-11T00:45:00.634Z,83.10
2017-12-11T00:47:28.113Z,83.10
2017-12-11T00:49:56.361Z,83.00
2017-12-11T00:52:23.891Z,83.00
2017-12-11T00:54:51.383Z,83.00
2017-12-11T00:57:18.874Z,82.90
2017-12-11T00:59:46.352Z,82.60
2017-12-11T01:02:14.587Z,82.60
2017-12-11T01:04:42.077Z,82.60
2017-12-11T01:07:10.325Z,82.40
2017-12-11T01:09:37.816Z,82.40
2017-12-11T01:12:05.360Z,82.40
2017-12-11T01:14:32.832Z,82.50
2017-12-11T01:17:00.318Z,82.40
2017-12-11T01:19:28.602Z,82.40
2017-12-11T01:21:56.858Z,82.40
2017-12-11T01:24:24.347Z,82.30
2017-12-11T01:26:52.578Z,82.20
2017-12-11T01:29:20.075Z,82.20
2017-12-11T01:31:47.568Z,82.30
2017-12-11T01:34:15.056Z,82.50
2017-12-11T01:36:42.539Z,82.60
2017-12-11T01:39:10.025Z,82.80
2017-12-11T01:41:37.496Z,83.20
2017-12-11T01:44:05.744Z,83.00
2017-12-11T01:46:33.234Z,83.00
2017-12-11T01:49:00.722Z,83.10
2017-12-11T01:51:28.197Z,83.00
2017-12-11T01:53:55.708Z,83.10
2017-12-11T01:56:23.183Z,83.30
2017-12-11T01:58:50.661Z,83.40
2017-12-11T02:01:18.912Z,83.20
2017-12-11T02:03:46.398Z,83.20
2017-12-11T02:06:14.663Z,84.10
2017-12-11T02:08:42.155Z,83.40
2017-12-11T02:11:10.400Z,83.40
2017-12-11T02:13:37.872Z,83.50
2017-12-11T02:16:05.356Z,83.50
2017-12-11T02:18:33.591Z,83.50
2017-12-11T02:21:01.082Z,83.50
2017-12-11T02:23:28.551Z,83.50
2017-12-11T02:25:56.797Z,83.50
2017-12-11T02:28:24.314Z,83.50
2017-12-11T02:30:52.473Z,83.50
2017-12-11T02:33:19.983Z,83.50
2017-12-11T02:35:47.481Z,83.40
2017-12-11T02:38:24.696Z,83.40
2017-12-11T02:40:52.944Z,83.40
2017-12-11T02:43:20.431Z,83.40
2017-12-11T02:45:48.672Z,84.00
2017-12-11T02:48:16.148Z,83.40
2017-12-11T02:50:43.644Z,83.40
2017-12-11T02:53:11.878Z,83.50
2017-12-11T02:55:39.362Z,83.50
2017-12-11T02:58:06.841Z,83.40
2017-12-11T03:00:34.322Z,83.20
2017-12-11T03:03:01.815Z,83.40
2017-12-11T03:05:29.321Z,83.40
2017-12-11T03:07:56.791Z,83.40
2017-12-11T03:10:24.265Z,83.50
2017-12-11T03:12:51.757Z,83.10
2017-12-11T03:15:19.232Z,83.00
2017-12-11T03:17:46.713Z,83.00
2017-12-11T03:20:14.220Z,83.00
2017-12-11T03:22:41.725Z,82.80
2017-12-11T03:25:09.194Z,82.80
2017-12-11T03:27:36.689Z,82.90
2017-12-11T03:30:04.191Z,82.80
2017-12-11T03:32:31.668Z,82.70
2017-12-11T03:34:59.141Z,82.70
2017-12-11T03:37:26.618Z,82.70
2017-12-11T03:39:54.872Z,83.40
2017-12-11T03:42:22.354Z,82.70
2017-12-11T03:44:49.851Z,82.60
2017-12-11T03:47:17.336Z,82.80
2017-12-11T03:49:44.826Z,83.00
2017-12-11T03:52:12.326Z,82.90
2017-12-11T03:54:40.554Z,83.20
2017-12-11T03:57:08.042Z,83.00
2017-12-11T03:59:35.512Z,83.00
2017-12-11T04:02:03.003Z,83.30
2017-12-11T04:04:30.478Z,83.10
2017-12-11T04:06:57.989Z,83.00
2017-12-11T04:09:25.465Z,83.10
2017-12-11T04:11:52.956Z,84.30
2017-12-11T04:14:20.431Z,84.30
2017-12-11T04:16:47.905Z,83.60
2017-12-11T04:19:15.408Z,83.60
2017-12-11T04:21:42.879Z,83.70
2017-12-11T04:24:10.380Z,84.00
2017-12-11T04:26:37.856Z,84.60
2017-12-11T04:29:05.347Z,83.60
2017-12-11T04:31:32.830Z,83.70
2017-12-11T04:34:00.317Z,83.90
2017-12-11T04:36:27.793Z,83.90
2017-12-11T04:38:55.287Z,83.90
2017-12-11T04:41:22.754Z,83.80
2017-12-11T04:43:50.231Z,83.80
2017-12-11T04:46:17.697Z,83.80
2017-12-11T04:48:45.171Z,84.10
2017-12-11T04:51:12.645Z,84.50
2017-12-11T04:53:40.897Z,84.50
2017-12-11T04:56:08.375Z,84.40
2017-12-11T04:58:35.857Z,84.30
2017-12-11T05:01:04.107Z,84.20
2017-12-11T05:03:31.588Z,84.20
2017-12-11T05:05:59.818Z,85.10
2017-12-11T05:08:27.301Z,84.50
2017-12-11T05:10:54.779Z,84.40
2017-12-11T05:13:22.272Z,84.30
2017-12-11T05:15:50.524Z,84.50
2017-12-11T05:18:18.042Z,84.50
2017-12-11T05:20:45.501Z,84.80
2017-12-11T05:23:13.293Z,84.70
2017-12-11T05:25:40.782Z,84.70
2017-12-11T05:28:08.242Z,85.00
2017-12-11T05:30:35.717Z,85.20
2017-12-11T05:33:03.956Z,85.50
2017-12-11T05:35:31.448Z,85.30
2017-12-11T05:37:58.922Z,85.50
2017-12-11T05:40:26.419Z,85.50
2017-12-11T05:42:53.876Z,85.70
2017-12-11T05:45:21.370Z,85.80
2017-12-11T05:47:48.845Z,86.20
2017-12-11T05:50:16.324Z,86.00
2017-12-11T05:52:43.789Z,86.10
2017-12-11T05:55:11.281Z,86.00
2017-12-11T05:57:39.521Z,86.40
2017-12-11T06:00:07.009Z,86.50
2017-12-11T06:02:35.244Z,86.70
2017-12-11T06:05:02.723Z,86.70
2017-12-11T06:07:30.203Z,86.60
2017-12-11T06:09:57.886Z,86.40
2017-12-11T06:12:25.387Z,86.00
2017-12-11T06:14:52.861Z,86.30
2017-12-11T06:17:20.326Z,86.30
2017-12-11T06:19:47.797Z,86.40
2017-12-11T06:22:15.268Z,86.70
2017-12-11T06:24:42.765Z,86.80
2017-12-11T06:27:10.995Z,86.90
2017-12-11T06:29:38.472Z,86.80
2017-12-11T06:32:05.944Z,86.80
2017-12-11T06:34:33.432Z,86.80
2017-12-11T06:37:00.904Z,87.00
2017-12-11T06:39:29.148Z,87.20
2017-12-11T06:41:56.638Z,87.10
2017-12-11T06:44:24.883Z,87.10
2017-12-11T06:46:52.436Z,86.90
2017-12-11T06:49:20.646Z,86.90
2017-12-11T06:51:48.128Z,86.70
2017-12-11T06:54:16.367Z,86.90
2017-12-11T06:56:43.843Z,86.90
2017-12-11T06:59:11.312Z,87.10
2017-12-11T07:01:38.794Z,86.80
2017-12-11T07:04:07.045Z,86.70
2017-12-11T07:06:34.516Z,86.70
2017-12-11T07:09:02.001Z,86.50
2017-12-11T07:11:30.239Z,86.70
2017-12-11T07:13:57.705Z,86.50
2017-12-11T07:16:26.205Z,86.80
2017-12-11T07:18:53.934Z,86.80
2017-12-11T07:21:21.429Z,87.00
2017-12-11T07:23:48.904Z,87.00
2017-12-11T07:26:16.378Z,87.10
2017-12-11T07:28:44.602Z,87.40
2017-12-11T07:31:12.087Z,87.40
2017-12-11T07:33:39.578Z,87.80
2017-12-11T07:36:07.065Z,87.90
2017-12-11T07:38:34.536Z,88.50
2017-12-11T07:41:02.022Z,88.40
2017-12-11T07:43:29.495Z,88.40
2017-12-11T07:45:56.983Z,88.20
2017-12-11T07:48:24.461Z,88.40
2017-12-11T07:50:52.702Z,88.00
2017-12-11T07:53:20.170Z,88.60
2017-12-11T07:55:47.652Z,88.40
2017-12-11T07:58:15.134Z,88.60
2017-12-11T08:00:43.366Z,88.30
2017-12-11T08:03:10.854Z,88.20
2017-12-11T08:05:38.339Z,88.20
2017-12-11T08:08:06.585Z,88.50
2017-12-11T08:10:34.057Z,88.40
2017-12-11T08:13:01.543Z,88.40
2017-12-11T08:15:29.793Z,88.30
2017-12-11T08:17:57.301Z,89.00
2017-12-11T08:20:25.527Z,88.20
2017-12-11T08:22:53.003Z,88.20
2017-12-11T08:25:20.472Z,88.20
2017-12-11T08:27:47.948Z,88.30
2017-12-11T08:30:15.431Z,88.30
2017-12-11T08:32:43.669Z,88.10
2017-12-11T08:35:11.163Z,88.10
2017-12-11T08:37:39.414Z,88.10
2017-12-11T08:40:06.874Z,88.20
2017-12-11T08:42:34.355Z,88.30
2017-12-11T08:45:01.830Z,88.20
2017-12-11T08:47:30.080Z,88.00
2017-12-11T08:49:57.551Z,87.90
2017-12-11T08:52:25.027Z,88.00
2017-12-11T08:54:52.509Z,87.90
2017-12-11T08:57:20.759Z,88.00
2017-12-11T08:59:48.226Z,88.00
2017-12-11T09:02:15.718Z,87.90
2017-12-11T09:04:43.198Z,87.90
2017-12-11T09:07:10.677Z,87.90
2017-12-11T09:09:38.219Z,87.80
2017-12-11T09:12:05.682Z,87.80
2017-12-11T09:14:33.154Z,87.90
2017-12-11T09:17:00.623Z,87.90
2017-12-11T09:19:28.102Z,88.00
2017-12-11T09:21:55.593Z,88.10
2017-12-11T09:24:23.082Z,88.30
2017-12-11T09:26:50.552Z,87.90
2017-12-11T09:29:18.071Z,88.10
2017-12-11T09:31:45.514Z,88.10
2017-12-11T09:34:13.013Z,88.10
2017-12-11T09:36:40.495Z,88.20
2017-12-11T09:39:08.744Z,88.20
2017-12-11T09:41:36.212Z,88.10
2017-12-11T09:44:03.694Z,88.10
2017-12-11T09:46:31.941Z,88.10
2017-12-11T09:48:59.427Z,88.10
2017-12-11T09:51:27.678Z,88.10
2017-12-11T09:53:55.172Z,88.00
2017-12-11T09:56:23.420Z,88.00
2017-12-11T09:58:50.905Z,88.00
2017-12-11T10:01:18.371Z,87.90
2017-12-11T10:03:45.849Z,87.60
2017-12-11T10:06:14.095Z,87.60
2017-12-11T10:08:41.614Z,87.60
2017-12-11T10:11:09.072Z,87.90
2017-12-11T10:13:36.578Z,87.70
2017-12-11T10:16:04.052Z,87.60
2017-12-11T10:18:31.509Z,87.50
2017-12-11T10:20:58.983Z,87.80
2017-12-11T10:23:26.448Z,87.50
2017-12-11T10:25:53.937Z,87.70
2017-12-11T10:28:21.431Z,87.80
2017-12-11T10:30:48.917Z,87.50
2017-12-11T10:33:16.369Z,87.60
2017-12-11T10:35:43.880Z,87.70
2017-12-11T10:38:12.129Z,87.60
2017-12-11T10:40:39.632Z,87.60
2017-12-11T10:43:07.874Z,87.60
2017-12-11T10:45:35.372Z,87.70
2017-12-11T10:48:03.608Z,87.80
2017-12-11T10:50:31.087Z,87.70
2017-12-11T10:52:58.571Z,88.00
2017-12-11T10:55:26.828Z,87.80
2017-12-11T10:57:54.291Z,87.80
2017-12-11T11:00:21.779Z,87.80
2017-12-11T11:02:50.014Z,87.80
2017-12-11T11:05:17.510Z,87.70
2017-12-11T11:07:44.977Z,87.80
2017-12-11T11:10:13.264Z,88.00
2017-12-11T11:12:41.501Z,88.10
2017-12-11T11:15:08.993Z,88.10
2017-12-11T11:17:36.478Z,88.10
2017-12-11T11:20:04.716Z,88.10
2017-12-11T11:22:32.182Z,88.00
2017-12-11T11:24:59.655Z,88.10
2017-12-11T11:27:27.124Z,88.30
2017-12-11T11:29:54.589Z,88.30
2017-12-11T11:32:22.066Z,89.00
2017-12-11T11:34:50.303Z,88.40
2017-12-11T11:37:17.799Z,88.40
2017-12-11T11:39:46.047Z,88.40
2017-12-11T11:42:13.519Z,88.40
2017-12-11T11:44:41.024Z,88.40
2017-12-11T11:47:09.272Z,88.50
2017-12-11T11:49:36.754Z,88.50
2017-12-11T11:52:05.029Z,88.60
2017-12-11T11:54:32.519Z,88.60
2017-12-11T11:56:59.997Z,88.60
2017-12-11T11:59:27.489Z,88.60
2017-12-11T12:01:54.990Z,88.60
2017-12-11T12:04:23.238Z,88.80
2017-12-11T12:06:50.757Z,88.70
2017-12-11T12:09:18.228Z,88.80
2017-12-11T12:11:45.715Z,89.10
2017-12-11T12:14:13.200Z,89.20
2017-12-11T12:16:40.684Z,89.30
2017-12-11T12:19:08.931Z,89.30
2017-12-11T12:21:36.408Z,89.40
2017-12-11T12:24:03.866Z,89.50
2017-12-11T12:26:31.346Z,89.40
2017-12-11T12:28:59.588Z,90.00
2017-12-11T12:31:27.069Z,89.30
2017-12-11T12:33:54.534Z,89.40
2017-12-11T12:36:22.017Z,89.60
2017-12-11T12:38:50.261Z,89.80
2017-12-11T12:41:17.737Z,89.80
2017-12-11T12:43:45.210Z,90.10
2017-12-11T12:46:14.807Z,90.10
2017-12-11T12:48:42.292Z,90.20
2017-12-11T12:51:10.544Z,89.80
2017-12-11T12:56:29.229Z,89.80
2017-12-11T12:58:56.727Z,89.80
2017-12-11T13:01:26.114Z,89.50
2017-12-11T13:03:53.627Z,89.50
2017-12-11T13:06:21.125Z,89.40
2017-12-11T13:08:48.613Z,89.40
2017-12-11T13:11:16.854Z,89.30
2017-12-11T13:13:44.346Z,89.20
2017-12-11T13:16:12.593Z,89.30
2017-12-11T13:18:40.079Z,89.20
2017-12-11T13:21:07.588Z,89.20
2017-12-11T13:23:35.071Z,89.20
2017-12-11T13:26:02.550Z,89.20
2017-12-11T13:28:30.031Z,89.10
2017-12-11T13:30:57.527Z,89.10
2017-12-11T13:33:25.016Z,89.00
2017-12-11T13:35:52.491Z,88.90
2017-12-11T13:38:19.969Z,88.80
2017-12-11T13:40:47.475Z,88.90
2017-12-11T13:43:14.974Z,88.90
2017-12-11T13:45:42.453Z,88.90
2017-12-11T13:48:09.944Z,88.90
2017-12-11T13:50:38.181Z,88.90
2017-12-11T13:53:05.661Z,88.90
2017-12-11T13:55:33.134Z,88.80
2017-12-11T13:58:00.625Z,88.80
2017-12-11T14:00:28.854Z,88.70
2017-12-11T14:02:56.369Z,88.50
2017-12-11T14:05:24.636Z,88.30
2017-12-11T14:07:52.879Z,87.70
2017-12-11T14:10:20.392Z,88.20
2017-12-11T14:12:48.616Z,88.10
2017-12-11T14:15:16.124Z,88.10
2017-12-11T14:17:44.368Z,88.20
2017-12-11T14:20:11.858Z,88.10
2017-12-11T14:22:39.361Z,88.00
2017-12-11T14:25:06.861Z,88.10
2017-12-11T14:27:34.340Z,88.10
2017-12-11T14:30:01.803Z,88.00
2017-12-11T14:32:29.271Z,87.80
2017-12-11T14:34:56.753Z,87.80
2017-12-11T14:37:25.015Z,87.20
2017-12-11T14:39:52.489Z,87.20
2017-12-11T14:42:20.726Z,87.00
2017-12-11T14:44:48.204Z,87.00
2017-12-11T14:47:15.679Z,86.70
2017-12-11T14:49:43.159Z,86.50
2017-12-11T14:52:11.406Z,86.20
2017-12-11T14:54:38.889Z,86.10
2017-12-11T14:57:06.355Z,85.90
2017-12-11T14:59:34.598Z,85.80
2017-12-11T15:02:02.078Z,85.80
2017-12-11T15:04:29.571Z,85.60
2017-12-11T15:06:57.823Z,85.20
2017-12-11T15:09:25.319Z,85.20
2017-12-11T15:11:53.560Z,85.00
2017-12-11T15:14:21.051Z,85.00
2017-12-11T15:16:48.532Z,84.90
2017-12-11T15:19:16.762Z,84.80
2017-12-11T15:21:45.015Z,84.70
2017-12-11T15:24:12.492Z,84.70
2017-12-11T15:26:39.979Z,84.60
2017-12-11T15:29:07.451Z,84.70
2017-12-11T15:31:34.915Z,84.70
2017-12-11T15:34:02.397Z,84.60
2017-12-11T15:36:30.630Z,84.70
2017-12-11T15:38:58.096Z,84.70
2017-12-11T15:41:25.574Z,84.70
2017-12-11T15:43:53.039Z,84.60
2017-12-11T15:46:20.521Z,84.60
2017-12-11T15:48:48.761Z,84.50
2017-12-11T15:51:16.238Z,84.30
2017-12-11T15:53:43.708Z,84.40
2017-12-11T15:56:11.179Z,84.40
2017-12-11T15:58:38.711Z,84.30
2017-12-11T16:01:06.225Z,84.30
2017-12-11T16:03:34.469Z,83.80
2017-12-11T16:06:01.956Z,83.80
2017-12-11T16:08:30.201Z,83.50
2017-12-11T16:10:57.706Z,83.40
2017-12-11T16:13:25.970Z,83.50
2017-12-11T16:15:53.445Z,83.50
2017-12-11T16:18:21.690Z,83.40
2017-12-11T16:20:49.167Z,83.30
2017-12-11T16:23:16.642Z,83.30
2017-12-11T16:25:44.128Z,83.20
2017-12-11T16:28:12.420Z,82.90
2017-12-11T16:30:39.909Z,82.90
2017-12-11T16:33:07.398Z,82.80
2017-12-11T16:35:34.874Z,82.80
2017-12-11T16:38:02.351Z,82.70
2017-12-11T16:40:30.591Z,82.50
2017-12-11T16:42:58.069Z,82.50
2017-12-11T16:45:25.533Z,82.20
2017-12-11T16:47:53.014Z,82.20
2017-12-11T16:50:21.261Z,82.00
2017-12-11T16:52:48.733Z,81.90
2017-12-11T16:55:16.201Z,81.90
2017-12-11T16:57:43.702Z,81.70
2017-12-11T17:00:11.164Z,81.60
2017-12-11T17:02:38.643Z,81.50
2017-12-11T17:05:06.129Z,81.40
2017-12-11T17:07:33.612Z,81.50
2017-12-11T17:10:01.092Z,81.50
2017-12-11T17:12:29.350Z,81.90
2017-12-11T17:14:56.839Z,81.30
2017-12-11T17:17:25.096Z,81.00
2017-12-11T17:19:52.581Z,81.00
2017-12-11T17:22:20.850Z,80.80
2017-12-11T17:24:48.332Z,80.80
2017-12-11T17:27:16.577Z,80.80
2017-12-11T17:29:44.053Z,80.70
2017-12-11T17:32:12.431Z,80.40
2017-12-11T17:34:39.904Z,80.30
2017-12-11T17:37:08.982Z,80.60
2017-12-11T17:39:36.449Z,79.90
2017-12-11T17:42:03.945Z,79.40
2017-12-11T17:44:32.185Z,79.40
2017-12-11T17:46:59.679Z,79.30
2017-12-11T17:49:27.926Z,79.30
2017-12-11T17:51:55.406Z,79.10
2017-12-11T17:54:22.875Z,78.90
2017-12-11T17:56:50.361Z,78.80
2017-12-11T17:59:18.601Z,78.60
2017-12-11T18:01:46.076Z,78.60
2017-12-11T18:04:13.551Z,78.10
2017-12-11T18:06:41.796Z,78.20
2017-12-11T18:09:09.289Z,78.00
2017-12-11T18:11:36.773Z,77.90
2017-12-11T18:14:05.011Z,78.00
2017-12-11T18:16:32.473Z,78.00
2017-12-11T18:18:59.971Z,77.70
2017-12-11T18:21:28.220Z,77.30
2017-12-11T18:23:55.710Z,77.20
2017-12-11T18:26:23.946Z,77.20
2017-12-11T18:28:51.435Z,77.20
2017-12-11T18:31:18.918Z,77.30
2017-12-11T18:33:47.168Z,77.50
2017-12-11T18:36:14.634Z,77.30
2017-12-11T18:38:42.127Z,77.30
2017-12-11T18:41:10.358Z,77.00
2017-12-11T18:43:37.842Z,76.90
2017-12-11T18:46:05.307Z,77.00
2017-12-11T18:48:32.802Z,76.90
2017-12-11T18:51:01.038Z,77.10
2017-12-11T18:53:29.306Z,77.10
2017-12-11T18:55:56.770Z,77.10
2017-12-11T18:58:24.243Z,77.00
2017-12-11T19:00:51.722Z,76.70
2017-12-11T19:03:19.217Z,76.50
2017-12-11T19:05:47.465Z,76.30
2017-12-11T19:08:14.944Z,76.30
2017-12-11T19:10:42.420Z,75.70
2017-12-11T19:13:10.658Z,75.40
2017-12-11T19:15:38.139Z,75.40
2017-12-11T19:18:05.615Z,75.40
2017-12-11T19:20:33.864Z,74.80
2017-12-11T19:23:01.344Z,74.80
2017-12-11T19:25:28.827Z,74.30
2017-12-11T19:27:57.076Z,74.20
2017-12-11T19:30:24.568Z,74.20
2017-12-11T19:32:52.809Z,73.70
2017-12-11T19:35:20.280Z,73.70
2017-12-11T19:37:47.751Z,74.00
2017-12-11T19:40:15.250Z,74.10
2017-12-11T19:42:43.490Z,73.40
2017-12-11T19:45:10.988Z,73.40
2017-12-11T19:47:38.471Z,73.50
2017-12-11T19:50:06.726Z,73.00
2017-12-11T19:52:34.960Z,72.70
2017-12-11T19:55:02.442Z,72.70
2017-12-11T19:57:29.912Z,72.50
2017-12-11T19:59:57.400Z,72.90
2017-12-11T20:02:24.885Z,73.00
2017-12-11T20:04:52.350Z,73.20
2017-12-11T20:07:19.838Z,72.70
2017-12-11T20:09:47.375Z,72.80
2017-12-11T20:12:14.854Z,72.70
2017-12-11T20:14:42.339Z,72.70
2017-12-11T20:17:09.826Z,72.40
2017-12-11T20:19:38.071Z,72.60
2017-12-11T20:22:05.600Z,72.40
2017-12-11T20:24:33.066Z,72.60
2017-12-11T20:27:00.556Z,72.40
2017-12-11T20:29:28.020Z,72.40
2017-12-11T20:31:55.502Z,72.80
2017-12-11T20:34:22.968Z,72.80
2017-12-11T20:36:51.220Z,72.60
2017-12-11T20:39:18.688Z,72.20
2017-12-11T20:41:46.161Z,72.60
2017-12-11T20:44:13.634Z,72.30
2017-12-11T20:46:41.122Z,72.30
2017-12-11T20:49:09.358Z,72.20
2017-12-11T20:51:36.859Z,72.10
2017-12-11T20:54:05.093Z,72.00
2017-12-11T20:56:32.576Z,72.00
2017-12-11T20:59:00.037Z,72.10
2017-12-11T21:01:27.505Z,71.80
2017-12-11T21:03:54.975Z,71.60
2017-12-11T21:06:22.463Z,71.70
2017-12-11T21:08:50.708Z,71.90
2017-12-11T21:11:18.233Z,71.90
2017-12-11T21:13:45.656Z,71.70
2017-12-11T21:16:13.923Z,71.50
2017-12-11T21:18:41.389Z,71.40
2017-12-11T21:21:08.870Z,71.50
2017-12-11T21:23:37.110Z,71.70
2017-12-11T21:26:04.586Z,71.70
2017-12-11T21:28:32.084Z,71.80
2017-12-11T21:30:59.562Z,71.80
2017-12-11T21:33:27.034Z,71.80
2017-12-11T21:35:54.513Z,71.80
2017-12-11T21:38:21.998Z,71.90
2017-12-11T21:40:49.475Z,71.80
2017-12-11T21:43:16.954Z,72.10
2017-12-11T21:45:45.203Z,72.40
2017-12-11T21:48:12.700Z,72.30
2017-12-11T21:50:40.940Z,72.20
2017-12-11T21:53:08.414Z,72.10
2017-12-11T21:55:35.888Z,72.30
2017-12-11T21:58:04.130Z,72.40
2017-12-11T22:00:31.620Z,72.30
2017-12-11T22:02:59.094Z,72.20
2017-12-11T22:05:27.510Z,72.30
2017-12-11T22:07:54.988Z,72.20
2017-12-11T22:10:22.534Z,72.10
2017-12-11T22:12:49.953Z,71.80
2017-12-11T22:15:17.419Z,71.90
2017-12-11T22:17:44.931Z,71.80
2017-12-11T22:20:12.406Z,71.70
2017-12-11T22:22:39.895Z,71.70
2017-12-11T22:25:07.374Z,71.60
2017-12-11T22:27:34.854Z,71.90
2017-12-11T22:30:03.095Z,71.70
2017-12-11T22:32:30.586Z,71.70
2017-12-11T22:34:58.053Z,71.70
2017-12-11T22:37:26.290Z,71.50
2017-12-11T22:39:53.777Z,71.50
2017-12-11T22:42:21.246Z,72.00
2017-12-11T22:44:48.743Z,72.10
2017-12-11T22:47:16.205Z,72.70
2017-12-11T22:49:43.685Z,71.70
2017-12-11T22:52:11.160Z,71.60
2017-12-11T22:54:38.642Z,71.40
2017-12-11T22:57:06.119Z,72.50
2017-12-11T22:59:33.591Z,71.70
2017-12-11T23:02:01.070Z,71.20
2017-12-11T23:04:28.540Z,71.60
2017-12-11T23:06:56.028Z,71.50
2017-12-11T23:09:23.502Z,71.50
2017-12-11T23:11:50.975Z,71.80
2017-12-11T23:14:18.476Z,72.00
2017-12-11T23:16:45.944Z,72.60
2017-12-11T23:19:13.429Z,72.70
2017-12-11T23:21:41.654Z,73.30
2017-12-11T23:24:09.139Z,73.30
2017-12-11T23:26:36.616Z,73.30
2017-12-11T23:29:04.133Z,72.90
2017-12-11T23:31:31.598Z,73.00
2017-12-11T23:33:59.068Z,72.50
2017-12-11T23:36:26.548Z,72.00
2017-12-11T23:38:54.029Z,72.00
2017-12-11T23:41:21.514Z,72.40
2017-12-11T23:43:49.764Z,71.20
2017-12-11T23:46:17.250Z,71.20
2017-12-11T23:48:45.485Z,68.80
2017-12-11T23:51:12.978Z,68.70
2017-12-11T23:53:40.460Z,69.00
2017-12-11T23:56:08.714Z,69.70
2017-12-11T23:58:36.182Z,69.60
